Time;durP1;ratioP1;P1;durP2;ratioP2;P2;SDS_P1;SDS_P2;PMS_P1;PMS_P2;Temp;Humidity;BMP_temperature;BMP_pressure;BME280_temperature;BME280_humidity;BME280_pressure;Samples;Min_cycle;Max_cycle;Signal;HPM_P1;HPM_P2
2022/05/20 00:00:23;;;;;;;3.13;2.87;;;20.40;99.90;;;;;;5050576;28;20200;-73
2022/05/20 00:02:50;;;;;;;2.17;2.07;;;20.40;99.90;;;;;;5050848;28;20204;-73
2022/05/20 00:05:18;;;;;;;2.30;2.20;;;20.30;99.90;;;;;;5050801;28;20587;-73
2022/05/20 00:07:44;;;;;;;3.83;2.57;;;20.30;99.90;;;;;;5050551;28;20737;-73
2022/05/20 00:10:15;;;;;;;2.27;2.17;;;20.30;99.90;;;;;;5049802;28;20301;-73
2022/05/20 00:12:42;;;;;;;2.10;1.97;;;20.30;99.90;;;;;;5050517;28;20197;-73
2022/05/20 00:15:12;;;;;;;3.17;2.37;;;20.30;99.90;;;;;;5050495;28;20258;-74
2022/05/20 00:17:39;;;;;;;3.63;2.53;;;20.30;99.90;;;;;;5050051;28;20752;-73
2022/05/20 00:20:07;;;;;;;2.87;2.33;;;20.10;99.90;;;;;;5050718;28;20216;-73
2022/05/20 00:22:34;;;;;;;4.87;2.50;;;20.20;99.90;;;;;;5050272;28;20262;-73
2022/05/20 00:27:45;;;;;;;2.77;2.20;;;19.90;99.90;;;;;;5050033;28;20233;-74
2022/05/20 00:30:14;;;;;;;3.93;2.40;;;19.90;99.90;;;;;;5050387;28;20258;-73
2022/05/20 00:32:41;;;;;;;2.70;2.23;;;19.80;99.90;;;;;;5049832;28;20266;-74
2022/05/20 00:35:09;;;;;;;2.97;2.23;;;19.90;99.90;;;;;;5050407;28;20209;-74
2022/05/20 00:37:35;;;;;;;2.80;2.60;;;19.80;99.90;;;;;;5050078;28;20220;-74
2022/05/20 00:40:02;;;;;;;2.90;2.63;;;19.90;99.90;;;;;;5049864;28;20204;-73
2022/05/20 00:42:29;;;;;;;2.47;2.37;;;19.80;99.90;;;;;;5049946;28;20200;-73
2022/05/20 00:44:55;;;;;;;3.13;2.70;;;19.80;99.90;;;;;;5050107;28;20339;-74
2022/05/20 00:47:23;;;;;;;3.30;2.60;;;19.80;99.90;;;;;;5049170;28;20224;-74
2022/05/20 00:49:54;;;;;;;3.53;2.60;;;19.70;99.90;;;;;;5050227;28;20216;-76
2022/05/20 00:52:26;;;;;;;3.17;2.40;;;19.70;99.90;;;;;;5050036;28;20246;-75
2022/05/20 00:54:55;;;;;;;2.67;2.47;;;19.70;99.90;;;;;;5049669;28;20242;-75
2022/05/20 00:57:25;;;;;;;3.57;2.60;;;19.60;99.90;;;;;;5050183;28;20208;-75
2022/05/20 00:59:58;;;;;;;2.87;2.50;;;19.50;99.90;;;;;;5049442;28;20262;-75
2022/05/20 01:02:28;;;;;;;2.67;2.47;;;19.60;99.90;;;;;;5049759;28;20242;-75
2022/05/20 01:04:58;;;;;;;2.30;2.20;;;19.60;99.90;;;;;;5049094;28;20598;-75
2022/05/20 01:07:26;;;;;;;7.50;2.70;;;19.50;99.90;;;;;;5049730;28;20235;-75
2022/05/20 01:09:53;;;;;;;4.97;2.53;;;19.50;99.90;;;;;;5048898;28;20780;-75
2022/05/20 01:12:20;;;;;;;3.17;2.50;;;19.50;99.90;;;;;;5050188;28;20208;-80
2022/05/20 01:14:49;;;;;;;2.70;2.53;;;19.50;99.90;;;;;;5049733;28;20216;-79
2022/05/20 01:17:16;;;;;;;2.70;2.60;;;19.40;99.90;;;;;;5050331;28;20258;-78
2022/05/20 01:19:48;;;;;;;2.70;2.50;;;19.40;99.90;;;;;;5049989;28;20259;-79
2022/05/20 01:22:26;;;;;;;3.87;3.07;;;19.40;99.90;;;;;;5049835;28;20204;-79
2022/05/20 01:24:54;;;;;;;2.40;2.20;;;19.40;99.90;;;;;;5049544;28;20242;-76
2022/05/20 01:27:21;;;;;;;3.20;2.90;;;19.40;99.90;;;;;;5049153;28;20224;-75
2022/05/20 01:29:48;;;;;;;3.47;3.27;;;19.20;99.90;;;;;;5049263;28;20203;-76
2022/05/20 01:32:15;;;;;;;4.10;3.80;;;19.50;99.90;;;;;;5049445;28;20217;-75
2022/05/20 01:34:41;;;;;;;3.30;3.10;;;19.50;99.90;;;;;;5032135;28;20608;-76
2022/05/20 01:37:08;;;;;;;3.47;3.27;;;19.50;99.90;;;;;;5029714;28;20263;-76
2022/05/20 01:39:35;;;;;;;3.43;3.23;;;19.60;99.90;;;;;;5029252;28;20208;-76
2022/05/20 01:42:08;;;;;;;3.53;3.33;;;19.40;99.90;;;;;;5031446;28;20248;-76
2022/05/20 01:44:40;;;;;;;4.33;4.03;;;19.50;99.90;;;;;;5049059;28;20604;-75
2022/05/20 01:47:13;;;;;;;4.33;3.70;;;19.40;99.90;;;;;;5048678;28;20282;-76
2022/05/20 01:49:44;;;;;;;4.67;4.27;;;19.50;99.90;;;;;;5048364;28;20674;-76
2022/05/20 01:52:19;;;;;;;4.57;4.20;;;19.20;99.90;;;;;;5048945;28;20647;-77
2022/05/20 01:54:55;;;;;;;4.57;3.37;;;19.20;99.90;;;;;;5048913;28;20188;-77
2022/05/20 01:57:30;;;;;;;4.80;4.40;;;19.10;99.90;;;;;;5048847;28;20196;-75
2022/05/20 02:00:01;;;;;;;5.23;4.90;;;19.00;99.90;;;;;;5048549;28;20647;-75
2022/05/20 02:02:32;;;;;;;5.90;5.27;;;19.00;99.90;;;;;;5048794;28;20200;-75
2022/05/20 02:05:04;;;;;;;5.40;5.00;;;19.00;99.90;;;;;;5048809;28;20232;-74
2022/05/20 02:07:36;;;;;;;5.83;4.57;;;19.00;99.90;;;;;;5048504;28;20220;-74
2022/05/20 02:10:08;;;;;;;5.73;5.30;;;19.10;99.90;;;;;;5047906;28;20227;-74
2022/05/20 02:12:41;;;;;;;6.20;5.60;;;19.20;99.90;;;;;;5048296;28;20215;-74
2022/05/20 02:15:13;;;;;;;6.13;5.70;;;19.20;99.90;;;;;;5048560;28;20196;-74
2022/05/20 02:17:45;;;;;;;6.27;5.87;;;19.20;99.90;;;;;;5048227;28;20204;-74
2022/05/20 02:20:16;;;;;;;6.73;6.23;;;19.20;99.90;;;;;;5048415;28;20247;-75
2022/05/20 02:22:48;;;;;;;7.07;6.50;;;19.10;99.90;;;;;;5048101;28;20196;-75
2022/05/20 02:25:21;;;;;;;6.13;5.73;;;19.00;99.90;;;;;;5028151;28;20193;-75
2022/05/20 02:27:54;;;;;;;5.83;5.50;;;19.10;99.90;;;;;;5047623;28;20232;-74
2022/05/20 02:30:26;;;;;;;6.07;5.53;;;19.10;99.90;;;;;;5047948;28;21039;-75
2022/05/20 02:32:57;;;;;;;6.80;6.20;;;19.10;99.90;;;;;;5048290;28;20228;-75
2022/05/20 02:35:24;;;;;;;6.40;5.90;;;19.10;99.90;;;;;;5048243;28;20207;-75
2022/05/20 02:37:50;;;;;;;6.33;5.93;;;19.30;99.90;;;;;;5048058;28;20207;-75
2022/05/20 02:40:20;;;;;;;6.67;6.17;;;19.40;99.90;;;;;;5047772;28;20257;-75
2022/05/20 02:42:46;;;;;;;6.30;5.77;;;19.30;99.90;;;;;;5047902;28;20204;-75
2022/05/20 02:45:15;;;;;;;6.03;5.63;;;19.30;99.90;;;;;;5047967;28;20217;-74
2022/05/20 02:47:42;;;;;;;6.07;5.67;;;19.30;99.90;;;;;;5047754;28;20637;-74
2022/05/20 02:50:12;;;;;;;6.33;5.93;;;19.40;99.90;;;;;;5047634;28;20529;-74
2022/05/20 02:52:39;;;;;;;6.77;6.30;;;19.30;99.90;;;;;;5047437;28;20659;-76
2022/05/20 02:55:07;;;;;;;6.40;5.90;;;19.20;99.90;;;;;;5047666;28;20349;-74
2022/05/20 02:57:35;;;;;;;6.13;5.70;;;19.20;99.90;;;;;;5047748;28;20216;-74
2022/05/20 03:05:37;;;;;;;6.30;5.90;;;19.10;99.90;;;;;;5047292;28;20250;-75
2022/05/20 03:08:05;;;;;;;6.13;5.63;;;19.00;99.90;;;;;;5046820;28;20563;-76
2022/05/20 03:10:32;;;;;;;6.10;5.60;;;19.00;99.90;;;;;;5046310;28;20231;-75
2022/05/20 03:12:59;;;;;;;5.50;5.10;;;19.00;99.90;;;;;;5047458;28;20211;-75
2022/05/20 03:15:26;;;;;;;5.20;4.90;;;19.10;99.90;;;;;;5047457;28;20299;-74
2022/05/20 03:17:54;;;;;;;6.27;5.77;;;19.20;99.90;;;;;;5038002;28;20680;-75
2022/05/20 03:20:21;;;;;;;5.90;5.40;;;19.00;99.90;;;;;;5025510;28;20208;-75
2022/05/20 03:22:48;;;;;;;6.10;5.60;;;19.10;99.90;;;;;;5036225;28;20224;-75
2022/05/20 03:25:15;;;;;;;6.63;6.20;;;19.00;99.90;;;;;;5044836;28;20205;-77
2022/05/20 03:27:42;;;;;;;6.13;5.57;;;19.00;99.90;;;;;;5045077;28;20292;-76
2022/05/20 03:30:12;;;;;;;5.90;5.50;;;18.90;99.90;;;;;;5045263;28;20276;-76
2022/05/20 03:32:39;;;;;;;6.50;5.40;;;19.00;99.90;;;;;;5045308;28;20240;-74
2022/05/20 03:35:08;;;;;;;6.30;5.80;;;18.90;99.90;;;;;;5045660;28;20209;-73
2022/05/20 03:37:36;;;;;;;6.50;6.00;;;19.00;99.90;;;;;;5045544;28;20216;-73
2022/05/20 03:40:05;;;;;;;6.67;6.03;;;19.00;99.90;;;;;;5045319;28;20208;-73
2022/05/20 03:42:32;;;;;;;5.60;5.20;;;18.90;99.90;;;;;;5044914;28;20212;-73
2022/05/20 03:44:59;;;;;;;6.33;5.83;;;19.00;99.90;;;;;;5045131;28;20219;-73
2022/05/20 03:47:25;;;;;;;6.50;5.90;;;19.20;99.90;;;;;;5044518;28;20714;-73
2022/05/20 03:49:52;;;;;;;5.73;5.33;;;19.20;99.90;;;;;;5044701;28;20734;-73
2022/05/20 03:52:20;;;;;;;5.73;5.30;;;19.00;99.90;;;;;;5044589;28;20651;-74
2022/05/20 03:54:47;;;;;;;5.67;5.17;;;19.20;99.90;;;;;;5044559;28;20219;-73
2022/05/20 03:57:14;;;;;;;5.73;5.33;;;19.20;99.90;;;;;;5044846;28;20204;-73
2022/05/20 03:59:41;;;;;;;5.97;5.57;;;19.20;99.90;;;;;;5044847;28;20208;-75
2022/05/20 04:02:09;;;;;;;5.83;5.47;;;19.30;99.90;;;;;;5046930;28;20212;-74
2022/05/20 04:04:38;;;;;;;7.43;6.20;;;19.50;99.90;;;;;;5045857;28;20270;-74
2022/05/20 04:07:07;;;;;;;6.23;5.83;;;19.40;99.90;;;;;;5046315;28;20250;-74
2022/05/20 04:09:35;;;;;;;6.27;5.87;;;19.30;99.90;;;;;;5046340;28;20278;-74
2022/05/20 04:12:05;;;;;;;6.97;6.40;;;19.20;99.90;;;;;;5046536;28;20211;-73
2022/05/20 04:14:32;;;;;;;5.97;5.57;;;19.20;99.90;;;;;;5050397;28;20199;-74
2022/05/20 04:16:59;;;;;;;7.30;6.70;;;19.30;99.90;;;;;;5050643;28;20212;-74
2022/05/20 04:19:28;;;;;;;6.80;6.20;;;19.10;99.90;;;;;;5049373;28;20248;-74
2022/05/20 04:21:57;;;;;;;6.70;6.30;;;19.20;99.90;;;;;;5046777;28;20200;-74
2022/05/20 04:24:24;;;;;;;6.70;6.20;;;19.40;99.90;;;;;;5048781;28;20878;-74
2022/05/20 04:26:52;;;;;;;7.47;6.97;;;19.40;99.90;;;;;;5048898;28;20277;-74
2022/05/20 04:29:19;;;;;;;7.83;7.17;;;19.20;99.90;;;;;;5049030;28;20230;-74
2022/05/20 04:31:48;;;;;;;8.40;7.57;;;19.20;99.90;;;;;;5049137;28;20193;-74
2022/05/20 04:34:15;;;;;;;7.57;6.93;;;19.20;99.90;;;;;;5046639;28;20257;-74
2022/05/20 04:36:42;;;;;;;7.93;7.23;;;19.20;99.90;;;;;;5048973;28;20250;-74
2022/05/20 04:39:08;;;;;;;7.97;7.27;;;19.30;99.90;;;;;;5048568;28;20208;-74
2022/05/20 04:47:11;;;;;;;8.90;8.20;;;19.20;99.90;;;;;;5048101;28;20264;-74
2022/05/20 04:49:41;;;;;;;7.80;7.10;;;19.10;99.90;;;;;;5048226;28;20820;-74
2022/05/20 04:52:07;;;;;;;8.17;7.47;;;19.20;99.90;;;;;;5048921;28;20200;-74
2022/05/20 04:54:52;;;;;;;7.53;6.93;;;19.20;99.90;;;;;;5043170;28;20247;-74
2022/05/20 04:57:26;;;;;;;7.30;6.70;;;19.20;99.90;;;;;;5048705;28;20198;-74
2022/05/20 04:59:58;;;;;;;7.10;6.50;;;19.00;99.90;;;;;;5048540;28;20188;-74
2022/05/20 05:02:26;;;;;;;7.90;7.30;;;19.10;99.90;;;;;;5048596;28;20203;-74
2022/05/20 05:04:53;;;;;;;8.07;7.27;;;19.00;99.90;;;;;;5048265;28;20712;-75
2022/05/20 05:07:19;;;;;;;8.27;7.67;;;19.00;99.90;;;;;;5048449;28;20208;-74
2022/05/20 05:09:46;;;;;;;8.17;7.57;;;18.90;99.90;;;;;;5047746;28;20243;-74
2022/05/20 05:12:15;;;;;;;7.40;6.90;;;18.90;99.90;;;;;;5045652;28;20678;-74
2022/05/20 05:14:44;;;;;;;7.90;7.30;;;19.00;99.90;;;;;;5047916;28;20212;-74
2022/05/20 05:17:14;;;;;;;8.17;7.57;;;19.00;99.90;;;;;;5048512;28;20208;-74
2022/05/20 05:19:41;;;;;;;8.17;7.57;;;19.00;99.90;;;;;;5048673;28;20258;-74
2022/05/20 05:22:09;;;;;;;8.97;8.20;;;19.10;99.90;;;;;;5048747;28;20200;-74
2022/05/20 05:24:37;;;;;;;8.57;7.77;;;19.10;99.90;;;;;;5046855;28;20674;-74
2022/05/20 05:27:05;;;;;;;7.43;6.90;;;19.10;99.90;;;;;;5048308;28;20274;-74
2022/05/20 05:29:35;;;;;;;8.50;7.90;;;19.20;99.90;;;;;;5047758;28;20310;-74
2022/05/20 05:32:01;;;;;;;9.73;8.93;;;19.20;99.90;;;;;;5048063;28;20566;-74
2022/05/20 05:34:29;;;;;;;9.03;8.23;;;19.20;99.90;;;;;;5047672;28;20749;-74
2022/05/20 05:36:56;;;;;;;8.17;7.47;;;19.10;99.90;;;;;;5048298;28;20196;-74
2022/05/20 05:39:23;;;;;;;9.27;8.40;;;19.20;99.90;;;;;;5047724;28;20266;-74
2022/05/20 05:41:49;;;;;;;9.27;8.47;;;19.20;99.90;;;;;;5047758;28;20209;-74
2022/05/20 05:44:16;;;;;;;10.30;9.50;;;19.20;99.90;;;;;;5047662;28;20738;-74
2022/05/20 05:46:43;;;;;;;11.20;10.20;;;19.10;99.90;;;;;;5047232;28;20670;-74
2022/05/20 05:49:09;;;;;;;10.80;9.63;;;19.00;99.90;;;;;;5047935;28;20220;-74
2022/05/20 05:51:37;;;;;;;10.50;9.53;;;19.00;99.90;;;;;;5047945;28;20200;-74
2022/05/20 05:54:04;;;;;;;11.63;10.60;;;19.00;99.90;;;;;;5047272;28;20678;-74
2022/05/20 05:56:31;;;;;;;11.07;10.07;;;18.90;99.90;;;;;;5047521;28;20757;-74
2022/05/20 05:58:57;;;;;;;11.20;9.90;;;18.80;99.90;;;;;;5046320;28;20586;-74
2022/05/20 06:01:24;;;;;;;9.93;8.97;;;18.80;99.90;;;;;;5047116;28;20207;-74
2022/05/20 06:03:51;;;;;;;10.53;9.63;;;18.90;99.90;;;;;;5047529;28;20743;-74
2022/05/20 06:06:17;;;;;;;10.60;9.77;;;18.90;99.90;;;;;;5047611;28;20250;-74
2022/05/20 06:08:48;;;;;;;10.47;9.47;;;18.80;99.90;;;;;;5047167;28;20767;-74
2022/05/20 06:11:15;;;;;;;10.23;9.40;;;18.90;99.90;;;;;;5044149;28;20240;-74
2022/05/20 06:13:42;;;;;;;9.13;8.40;;;19.00;99.90;;;;;;5047238;28;20200;-74
2022/05/20 06:16:09;;;;;;;10.27;9.43;;;19.10;99.90;;;;;;5047270;28;20205;-74
2022/05/20 06:18:35;;;;;;;10.23;9.50;;;19.10;99.90;;;;;;5047146;28;20207;-74
2022/05/20 06:21:05;;;;;;;9.87;9.17;;;19.20;99.90;;;;;;5047036;28;20197;-74
2022/05/20 06:23:31;;;;;;;9.17;8.57;;;19.20;99.90;;;;;;5046990;28;20223;-74
2022/05/20 06:25:59;;;;;;;9.47;8.57;;;19.20;99.90;;;;;;5046304;28;21004;-74
2022/05/20 06:28:26;;;;;;;7.80;7.30;;;19.30;99.90;;;;;;5046075;28;20219;-74
2022/05/20 06:30:53;;;;;;;9.23;8.30;;;19.40;99.90;;;;;;5046572;28;20199;-74
2022/05/20 06:33:20;;;;;;;8.87;8.07;;;19.30;99.90;;;;;;5046588;28;20947;-74
2022/05/20 06:41:16;;;;;;;7.70;7.20;;;19.20;99.90;;;;;;5046667;28;20992;-74
2022/05/20 06:43:42;;;;;;;7.50;6.90;;;19.20;99.90;;;;;;5046634;28;20216;-74
2022/05/20 06:46:10;;;;;;;6.77;6.17;;;19.30;99.90;;;;;;5046915;28;20250;-74
2022/05/20 06:48:40;;;;;;;6.53;6.03;;;19.30;99.90;;;;;;5046660;28;20232;-74
2022/05/20 06:51:07;;;;;;;6.80;6.17;;;19.30;99.90;;;;;;5047321;28;20273;-74
2022/05/20 06:53:34;;;;;;;6.23;5.70;;;19.20;99.90;;;;;;5046959;28;20627;-74
2022/05/20 06:56:01;;;;;;;6.97;6.47;;;19.10;99.90;;;;;;5046691;28;20224;-74
2022/05/20 06:58:30;;;;;;;8.87;6.67;;;19.10;99.90;;;;;;5046674;28;20250;-74
2022/05/20 07:00:57;;;;;;;8.17;7.50;;;19.20;99.90;;;;;;5030352;28;20654;-74
2022/05/20 07:03:24;;;;;;;7.20;6.50;;;19.10;99.90;;;;;;5046355;28;20203;-74
2022/05/20 07:05:50;;;;;;;7.40;6.70;;;19.20;99.90;;;;;;5046293;28;20599;-74
2022/05/20 07:08:18;;;;;;;6.30;5.80;;;19.20;99.90;;;;;;5046088;28;20227;-74
2022/05/20 07:10:44;;;;;;;5.77;5.47;;;19.30;99.90;;;;;;5045865;28;20293;-76
2022/05/20 07:13:11;;;;;;;6.40;5.90;;;19.30;99.90;;;;;;5046533;28;20204;-74
2022/05/20 07:15:39;;;;;;;5.97;5.53;;;19.30;99.90;;;;;;5046126;28;20693;-74
2022/05/20 07:18:06;;;;;;;6.47;5.87;;;19.30;99.90;;;;;;5046136;28;20253;-74
2022/05/20 07:20:32;;;;;;;11.57;6.03;;;19.30;99.90;;;;;;5046379;28;20257;-74
2022/05/20 07:22:59;;;;;;;5.87;5.40;;;19.40;99.90;;;;;;5046548;28;20200;-74
2022/05/20 07:25:26;;;;;;;5.10;4.80;;;19.40;99.90;;;;;;5046030;28;20200;-74
2022/05/20 07:27:52;;;;;;;6.13;5.73;;;19.40;99.90;;;;;;5046252;28;20204;-74
2022/05/20 07:30:19;;;;;;;6.10;5.37;;;19.60;99.90;;;;;;5045744;28;20727;-74
2022/05/20 07:32:47;;;;;;;5.27;4.80;;;19.60;99.90;;;;;;5046492;28;20576;-74
2022/05/20 07:35:16;;;;;;;5.37;5.00;;;19.80;99.90;;;;;;5046301;28;20204;-74
2022/05/20 07:37:43;;;;;;;5.93;5.43;;;19.70;99.90;;;;;;5045965;28;20212;-74
2022/05/20 07:40:10;;;;;;;6.47;4.73;;;19.60;99.90;;;;;;5045939;28;20200;-74
2022/05/20 07:42:37;;;;;;;5.03;4.63;;;19.60;99.90;;;;;;5045879;28;20234;-74
2022/05/20 07:45:04;;;;;;;5.67;5.17;;;19.60;99.90;;;;;;5046239;28;20206;-74
2022/05/20 07:47:31;;;;;;;4.90;4.60;;;19.60;99.90;;;;;;5046847;28;20246;-74
2022/05/20 07:50:00;;;;;;;5.27;4.77;;;19.60;99.90;;;;;;5049813;28;20226;-74
2022/05/20 07:55:11;;;;;;;4.80;4.40;;;19.70;99.90;;;;;;5048720;28;20204;-74
2022/05/20 07:57:41;;;;;;;3.93;3.63;;;19.80;99.90;;;;;;5049670;28;20212;-74
2022/05/20 08:00:12;;;;;;;3.57;3.37;;;19.90;99.90;;;;;;5049617;28;20620;-74
2022/05/20 08:02:42;;;;;;;4.10;3.70;;;20.10;99.90;;;;;;5047697;28;20224;-74
2022/05/20 08:05:10;;;;;;;3.27;3.07;;;20.00;99.90;;;;;;5049153;28;20236;-74
2022/05/20 08:07:41;;;;;;;4.47;4.07;;;20.10;99.90;;;;;;5049229;28;20211;-74
2022/05/20 08:10:11;;;;;;;4.10;3.80;;;20.20;99.90;;;;;;5049372;28;20243;-74
2022/05/20 08:12:38;;;;;;;3.87;3.50;;;20.10;99.90;;;;;;5047522;28;20235;-74
2022/05/20 08:15:05;;;;;;;3.90;3.60;;;20.00;99.90;;;;;;5049627;28;20193;-74
2022/05/20 08:17:35;;;;;;;3.60;3.30;;;20.10;99.90;;;;;;5049375;28;20204;-74
2022/05/20 08:20:04;;;;;;;3.47;3.20;;;20.20;99.90;;;;;;5049753;28;20211;-74
2022/05/20 08:22:32;;;;;;;4.17;3.87;;;20.30;99.90;;;;;;5049343;28;20200;-74
2022/05/20 08:24:59;;;;;;;3.50;3.20;;;20.50;99.90;;;;;;5049097;28;20201;-74
2022/05/20 08:27:27;;;;;;;3.57;3.23;;;20.40;99.90;;;;;;5049304;28;20200;-74
2022/05/20 08:29:54;;;;;;;3.97;3.63;;;20.50;99.90;;;;;;5049087;28;20228;-74
2022/05/20 08:32:21;;;;;;;3.70;3.40;;;20.50;99.90;;;;;;5048708;28;20196;-74
2022/05/20 08:34:48;;;;;;;4.83;3.57;;;20.50;99.90;;;;;;5049021;28;20204;-74
2022/05/20 08:37:16;;;;;;;4.80;3.30;;;20.50;99.90;;;;;;5049170;28;20270;-74
2022/05/20 08:39:45;;;;;;;4.00;3.70;;;20.70;99.90;;;;;;5049038;28;20666;-74
2022/05/20 08:42:20;;;;;;;3.87;3.57;;;20.70;99.90;;;;;;5050260;28;20204;-74
2022/05/20 08:44:47;;;;;;;3.50;3.20;;;20.80;99.90;;;;;;5049723;28;20196;-74
2022/05/20 08:47:20;;;;;;;3.30;3.10;;;21.00;99.90;;;;;;5049092;28;20609;-74
2022/05/20 08:49:47;;;;;;;4.87;4.33;;;20.90;99.90;;;;;;5049199;28;20216;-74
2022/05/20 08:52:13;;;;;;;3.87;3.60;;;20.90;99.90;;;;;;5048796;28;20246;-74
2022/05/20 08:54:41;;;;;;;3.53;3.23;;;21.00;99.90;;;;;;5048809;28;20192;-74
2022/05/20 08:57:17;;;;;;;4.57;3.23;;;20.80;99.90;;;;;;5049196;28;20318;-74
2022/05/20 08:59:44;;;;;;;2.90;2.77;;;20.80;99.90;;;;;;5048726;28;20212;-74
2022/05/20 09:02:11;;;;;;;6.70;3.30;;;20.80;99.90;;;;;;5048933;28;20357;-74
2022/05/20 09:04:38;;;;;;;3.80;3.50;;;21.00;99.90;;;;;;5048437;28;20216;-74
2022/05/20 09:07:08;;;;;;;4.37;3.73;;;21.00;99.90;;;;;;5049053;28;20197;-74
2022/05/20 09:09:43;;;;;;;4.60;3.17;;;21.10;99.90;;;;;;5048338;28;20259;-74
2022/05/20 09:12:11;;;;;;;3.23;2.93;;;21.10;99.90;;;;;;5048706;28;20609;-74
2022/05/20 09:17:43;;;;;;;2.90;2.70;;;21.20;99.90;;;;;;5043750;28;20576;-74
2022/05/20 09:20:14;;;;;;;2.87;2.67;;;21.40;99.90;;;;;;5046342;28;20234;-74
2022/05/20 09:22:41;;;;;;;4.43;2.60;;;21.20;99.90;;;;;;5048205;28;20281;-74
2022/05/20 09:25:20;;;;;;;2.73;2.43;;;21.30;99.90;;;;;;5047647;28;20706;-74
2022/05/20 09:27:47;;;;;;;2.87;2.60;;;21.30;99.90;;;;;;5048439;28;20575;-74
2022/05/20 09:30:23;;;;;;;3.60;2.60;;;21.30;99.90;;;;;;5048299;28;20235;-74
2022/05/20 09:33:01;;;;;;;4.43;2.60;;;21.40;99.90;;;;;;5045734;28;20566;-74
2022/05/20 09:35:34;;;;;;;2.60;2.40;;;21.50;99.90;;;;;;5048396;28;20204;-74
2022/05/20 09:38:10;;;;;;;2.57;2.37;;;21.60;99.90;;;;;;5048583;28;20188;-74
2022/05/20 09:40:41;;;;;;;3.20;2.73;;;21.60;99.90;;;;;;5046147;28;20183;-74
2022/05/20 09:43:10;;;;;;;3.92;2.60;;;21.50;99.90;;;;;;5048272;28;20203;-74
2022/05/20 09:45:44;;;;;;;1.93;1.83;;;21.70;99.90;;;;;;5047788;28;20254;-74
2022/05/20 09:48:15;;;;;;;3.20;2.50;;;21.80;99.90;;;;;;5045727;28;20207;-75
2022/05/20 09:50:57;;;;;;;2.57;2.40;;;22.00;99.90;;;;;;5047664;28;20368;-74
2022/05/20 09:53:28;;;;;;;2.60;2.40;;;22.10;99.90;;;;;;5046875;28;20913;-74
2022/05/20 09:56:14;;;;;;;2.87;2.60;;;22.10;99.90;;;;;;5047373;28;20208;-74
2022/05/20 09:58:40;;;;;;;3.07;2.27;;;22.10;99.90;;;;;;5047580;28;20242;-74
2022/05/20 10:01:12;;;;;;;2.47;1.90;;;22.00;99.90;;;;;;5047660;28;20345;-74
2022/05/20 10:03:41;;;;;;;2.70;2.50;;;22.00;99.90;;;;;;5047611;28;20707;-74
2022/05/20 10:06:17;;;;;;;2.10;2.00;;;22.10;99.90;;;;;;5047665;28;20250;-74
2022/05/20 10:08:49;;;;;;;2.60;2.47;;;22.20;99.90;;;;;;5047377;28;20555;-74
2022/05/20 10:11:21;;;;;;;5.53;2.30;;;22.30;99.90;;;;;;5044389;28;20305;-74
2022/05/20 10:13:53;;;;;;;2.22;2.13;;;22.30;99.90;;;;;;5046957;28;20276;-74
2022/05/20 10:16:32;;;;;;;2.80;2.60;;;22.30;99.30;;;;;;5046435;28;20204;-74
2022/05/20 10:19:21;;;;;;;3.13;2.80;;;22.40;99.90;;;;;;5045140;28;20200;-74
2022/05/20 10:21:54;;;;;;;2.38;2.20;;;22.50;99.90;;;;;;5046707;28;20192;-74
2022/05/20 10:24:32;;;;;;;2.33;2.03;;;22.60;99.90;;;;;;5047026;28;20208;-73
2022/05/20 10:27:04;;;;;;;2.08;1.98;;;22.70;99.90;;;;;;5044959;28;20650;-74
2022/05/20 10:32:35;;;;;;;2.10;1.70;;;22.90;98.30;;;;;;5045953;28;20195;-74
2022/05/20 10:35:05;;;;;;;2.42;2.30;;;23.10;97.70;;;;;;5043387;28;20208;-74
2022/05/20 10:37:47;;;;;;;2.20;2.00;;;23.30;98.20;;;;;;5043283;28;20204;-74
2022/05/20 10:40:35;;;;;;;1.85;1.73;;;23.30;97.80;;;;;;5043100;28;20254;-74
2022/05/20 10:43:14;;;;;;;2.80;2.10;;;23.40;98.10;;;;;;5044430;28;20201;-74
2022/05/20 10:49:06;;;;;;;2.78;2.22;;;23.70;98.80;;;;;;5041715;28;20199;-74
2022/05/20 10:51:51;;;;;;;2.75;2.15;;;23.70;98.40;;;;;;5037894;28;20619;-74
2022/05/20 10:54:39;;;;;;;2.25;2.13;;;23.80;98.60;;;;;;5043065;28;20226;-74
2022/05/20 10:57:28;;;;;;;2.70;2.50;;;23.80;99.20;;;;;;5044616;28;20200;-74
2022/05/20 11:00:06;;;;;;;2.70;2.60;;;23.70;99.50;;;;;;5044717;28;20297;-74
2022/05/20 11:03:01;;;;;;;4.13;2.35;;;23.80;98.00;;;;;;5045667;28;20266;-74
2022/05/20 11:05:45;;;;;;;2.55;2.40;;;23.80;98.80;;;;;;5044982;28;20318;-75
2022/05/20 11:08:22;;;;;;;2.30;2.20;;;23.80;98.80;;;;;;5030352;28;20721;-74
2022/05/20 11:11:15;;;;;;;3.83;2.10;;;24.00;98.50;;;;;;5045390;28;20297;-74
2022/05/20 11:14:03;;;;;;;2.55;2.30;;;24.20;98.00;;;;;;5025559;28;20201;-74
2022/05/20 11:16:47;;;;;;;3.30;2.42;;;24.20;97.20;;;;;;5027571;28;20267;-74
2022/05/20 11:19:31;;;;;;;5.32;2.17;;;24.20;97.50;;;;;;5045856;28;20212;-74
2022/05/20 11:22:23;;;;;;;3.22;2.67;;;24.40;98.50;;;;;;5044525;28;20218;-74
2022/05/20 11:25:08;;;;;;;2.53;2.30;;;24.60;98.20;;;;;;5045595;28;20196;-74
2022/05/20 11:27:50;;;;;;;2.50;2.30;;;24.80;97.60;;;;;;5045913;28;20204;-74
2022/05/20 11:30:24;;;;;;;2.40;2.20;;;24.70;97.50;;;;;;5045638;28;20224;-74
2022/05/20 11:33:09;;;;;;;2.15;2.03;;;24.80;97.60;;;;;;5045951;28;20195;-74
2022/05/20 11:35:58;;;;;;;3.28;2.45;;;24.80;97.40;;;;;;5038814;28;20350;-74
2022/05/20 11:38:52;;;;;;;2.95;1.85;;;25.10;96.90;;;;;;5045740;28;20215;-74
2022/05/20 11:41:30;;;;;;;2.00;1.90;;;25.20;96.30;;;;;;5045223;28;20200;-74
2022/05/20 11:44:13;;;;;;;2.10;2.00;;;25.40;95.40;;;;;;5044950;28;20207;-74
2022/05/20 11:47:08;;;;;;;2.22;2.03;;;25.30;95.10;;;;;;5043895;28;20862;-73
2022/05/20 11:49:51;;;;;;;1.85;1.75;;;25.20;95.50;;;;;;5044309;28;20209;-75
2022/05/20 11:52:43;;;;;;;2.50;2.00;;;25.30;95.70;;;;;;5044842;28;20257;-75
2022/05/20 11:55:18;;;;;;;2.10;1.80;;;25.40;95.80;;;;;;5044260;28;20304;-75
2022/05/20 11:57:50;;;;;;;2.50;2.13;;;25.40;95.80;;;;;;5044927;28;20196;-75
2022/05/20 12:00:19;;;;;;;3.30;1.90;;;25.60;95.50;;;;;;5044548;28;20197;-74
2022/05/20 12:02:49;;;;;;;2.22;2.00;;;25.70;94.80;;;;;;5045128;28;20269;-75
2022/05/20 12:05:19;;;;;;;2.08;1.90;;;25.70;94.40;;;;;;5046681;28;20236;-75
2022/05/20 12:07:46;;;;;;;2.15;2.05;;;25.80;94.70;;;;;;5047183;28;20215;-75
2022/05/20 12:10:55;;;;;;;2.10;1.55;;;25.80;93.80;;;;;;5045564;28;20266;-75
2022/05/20 12:13:25;;;;;;;2.30;1.88;;;25.80;92.80;;;;;;5021891;28;20666;-75
2022/05/20 12:16:10;;;;;;;1.73;1.63;;;25.50;92.20;;;;;;5045864;28;20200;-76
2022/05/20 12:24:36;;;;;;;2.05;1.60;;;25.70;92.80;;;;;;5034991;28;20215;-77
2022/05/20 12:27:03;;;;;;;1.50;1.40;;;26.10;92.40;;;;;;5045996;28;20205;-74
2022/05/20 12:29:59;;;;;;;2.50;2.30;;;26.40;92.90;;;;;;5046055;28;20204;-75
2022/05/20 12:32:52;;;;;;;2.08;1.90;;;26.50;92.80;;;;;;5045370;28;20219;-75
2022/05/20 12:35:24;;;;;;;3.72;2.00;;;26.80;92.80;;;;;;5049075;28;21025;-73
2022/05/20 12:37:57;;;;;;;2.10;1.90;;;26.90;92.30;;;;;;5043642;28;20204;-75
2022/05/20 12:41:07;;;;;;;4.20;1.90;;;26.90;92.30;;;;;;5041579;28;20857;-75
2022/05/20 12:43:52;;;;;;;2.28;1.67;;;27.10;91.80;;;;;;5045058;28;20694;-74
2022/05/20 12:46:58;;;;;;;1.80;1.70;;;27.20;91.00;;;;;;5046765;28;20200;-74
2022/05/20 12:49:27;;;;;;;1.92;1.60;;;26.80;91.10;;;;;;5046024;28;20204;-74
2022/05/20 12:51:54;;;;;;;2.70;1.58;;;27.10;90.80;;;;;;5047031;28;20326;-74
2022/05/20 12:54:23;;;;;;;1.50;1.40;;;26.90;87.20;;;;;;5046724;28;20208;-75
2022/05/20 12:56:55;;;;;;;1.60;1.50;;;26.90;87.60;;;;;;5044145;28;20216;-74
2022/05/20 12:59:24;;;;;;;1.67;1.35;;;27.00;88.10;;;;;;5045610;28;20277;-74
2022/05/20 13:01:57;;;;;;;1.30;1.30;;;26.80;88.40;;;;;;5045821;28;20480;-75
2022/05/20 13:04:27;;;;;;;1.73;1.38;;;26.60;90.00;;;;;;5046471;28;20223;-75
2022/05/20 13:06:54;;;;;;;1.35;1.23;;;26.40;88.90;;;;;;5046591;28;20208;-75
2022/05/20 13:09:24;;;;;;;1.40;1.30;;;26.50;88.40;;;;;;5046356;28;20215;-76
2022/05/20 13:11:51;;;;;;;1.00;1.00;;;26.40;88.00;;;;;;5046236;28;20273;-75
2022/05/20 13:14:22;;;;;;;1.50;1.40;;;26.50;85.60;;;;;;5043276;28;20618;-75
2022/05/20 13:16:53;;;;;;;9.05;1.50;;;26.60;84.00;;;;;;5046674;28;20200;-75
2022/05/20 13:19:28;;;;;;;1.52;1.40;;;26.80;83.20;;;;;;5046526;28;20196;-75
2022/05/20 13:22:00;;;;;;;1.20;1.20;;;27.00;84.70;;;;;;5044379;28;20230;-75
2022/05/20 13:24:29;;;;;;;1.63;1.30;;;26.90;82.30;;;;;;5045614;28;20679;-78
2022/05/20 13:27:05;;;;;;;1.10;1.10;;;26.80;82.20;;;;;;5045914;28;20208;-77
2022/05/20 13:29:31;;;;;;;1.40;1.30;;;26.90;83.20;;;;;;5043627;28;20285;-75
2022/05/20 13:32:21;;;;;;;1.25;1.20;;;26.70;82.60;;;;;;5046268;28;21006;-76
2022/05/20 13:34:53;;;;;;;1.88;1.13;;;26.50;82.90;;;;;;5043862;28;20266;-75
2022/05/20 13:37:24;;;;;;;1.40;1.20;;;26.50;83.80;;;;;;5046864;28;20198;-75
2022/05/20 13:39:54;;;;;;;1.80;1.60;;;26.30;84.00;;;;;;5043579;28;20886;-76
2022/05/20 13:42:22;;;;;;;1.40;1.30;;;26.20;84.50;;;;;;5046724;28;20212;-76